sensor_id;sensor_type;location;lat;lon;timestamp;temperature;humidity
43227;DHT22;28839;52.404;9.808;2023-05-18T00:02:21;5.00;99.90
43227;DHT22;28839;52.404;9.808;2023-05-18T00:09:15;4.90;99.90
43227;DHT22;28839;52.404;9.808;2023-05-18T00:16:09;4.70;99.90
43227;DHT22;28839;52.404;9.808;2023-05-18T00:23:05;4.60;99.90
43227;DHT22;28839;52.404;9.808;2023-05-18T00:30:02;4.40;99.90
43227;DHT22;28839;52.404;9.808;2023-05-18T00:36:57;4.30;99.90
43227;DHT22;28839;52.404;9.808;2023-05-18T00:43:53;4.30;99.90
43227;DHT22;28839;52.404;9.808;2023-05-18T00:50:47;4.20;99.90
43227;DHT22;28839;52.404;9.808;2023-05-18T00:57:41;4.10;99.90
43227;DHT22;28839;52.404;9.808;2023-05-18T01:04:38;4.20;99.90
43227;DHT22;28839;52.404;9.808;2023-05-18T01:11:39;4.00;99.90
43227;DHT22;28839;52.404;9.808;2023-05-18T01:18:40;3.80;99.90
43227;DHT22;28839;52.404;9.808;2023-05-18T01:25:45;3.80;99.90
43227;DHT22;28839;52.404;9.808;2023-05-18T01:32:44;3.80;99.90
43227;DHT22;28839;52.404;9.808;2023-05-18T01:39:38;3.80;99.90
43227;DHT22;28839;52.404;9.808;2023-05-18T01:46:44;3.70;99.90
43227;DHT22;28839;52.404;9.808;2023-05-18T01:53:45;3.70;99.90
43227;DHT22;28839;52.404;9.808;2023-05-18T02:00:43;3.60;99.90
43227;DHT22;28839;52.404;9.808;2023-05-18T02:07:37;3.50;99.90
43227;DHT22;28839;52.404;9.808;2023-05-18T02:14:33;3.40;99.90
43227;DHT22;28839;52.404;9.808;2023-05-18T02:21:27;3.30;99.90
43227;DHT22;28839;52.404;9.808;2023-05-18T02:28:21;3.30;99.90
43227;DHT22;28839;52.404;9.808;2023-05-18T02:35:16;3.20;99.90
43227;DHT22;28839;52.404;9.808;2023-05-18T02:42:10;3.10;99.90
43227;DHT22;28839;52.404;9.808;2023-05-18T02:49:05;3.00;99.90
43227;DHT22;28839;52.404;9.808;2023-05-18T02:56:00;3.00;99.90
43227;DHT22;28839;52.404;9.808;2023-05-18T03:02:55;3.10;99.90
43227;DHT22;28839;52.404;9.808;2023-05-18T03:09:51;3.00;99.90
43227;DHT22;28839;52.404;9.808;2023-05-18T03:16:47;2.90;99.90
43227;DHT22;28839;52.404;9.808;2023-05-18T03:23:45;2.80;99.90
43227;DHT22;28839;52.404;9.808;2023-05-18T03:30:39;2.80;99.90
43227;DHT22;28839;52.404;9.808;2023-05-18T03:37:35;2.70;99.90
43227;DHT22;28839;52.404;9.808;2023-05-18T03:44:29;2.70;99.90
43227;DHT22;28839;52.404;9.808;2023-05-18T03:51:23;2.70;99.90
43227;DHT22;28839;52.404;9.808;2023-05-18T03:58:19;2.80;99.90
43227;DHT22;28839;52.404;9.808;2023-05-18T04:05:14;2.80;99.90
43227;DHT22;28839;52.404;9.808;2023-05-18T04:12:08;2.90;99.90
43227;DHT22;28839;52.404;9.808;2023-05-18T04:19:03;2.90;99.90
43227;DHT22;28839;52.404;9.808;2023-05-18T04:25:58;3.10;99.90
43227;DHT22;28839;52.404;9.808;2023-05-18T04:32:52;3.50;99.90
43227;DHT22;28839;52.404;9.808;2023-05-18T04:39:47;3.70;99.90
43227;DHT22;28839;52.404;9.808;2023-05-18T04:46:41;4.00;99.90
43227;DHT22;28839;52.404;9.808;2023-05-18T04:53:38;4.20;99.90
43227;DHT22;28839;52.404;9.808;2023-05-18T05:00:34;4.50;99.90
43227;DHT22;28839;52.404;9.808;2023-05-18T05:07:28;5.00;99.90
43227;DHT22;28839;52.404;9.808;2023-05-18T05:14:22;5.30;99.90
43227;DHT22;28839;52.404;9.808;2023-05-18T05:21:17;6.10;99.90
43227;DHT22;28839;52.404;9.808;2023-05-18T05:28:11;6.80;99.90
43227;DHT22;28839;52.404;9.808;2023-05-18T06:59:34;11.00;99.90
43227;DHT22;28839;52.404;9.808;2023-05-18T07:06:28;11.90;99.90
43227;DHT22;28839;52.404;9.808;2023-05-18T07:13:22;11.70;99.90
43227;DHT22;28839;52.404;9.808;2023-05-18T07:20:17;13.60;99.90
43227;DHT22;28839;52.404;9.808;2023-05-18T07:27:11;13.40;99.90
43227;DHT22;28839;52.404;9.808;2023-05-18T07:34:05;13.50;99.90
43227;DHT22;28839;52.404;9.808;2023-05-18T07:41:01;14.40;99.90
43227;DHT22;28839;52.404;9.808;2023-05-18T07:47:55;13.00;99.90
43227;DHT22;28839;52.404;9.808;2023-05-18T07:54:49;13.90;99.90
43227;DHT22;28839;52.404;9.808;2023-05-18T08:01:44;14.80;99.90
43227;DHT22;28839;52.404;9.808;2023-05-18T08:08:40;13.80;99.90
43227;DHT22;28839;52.404;9.808;2023-05-18T08:15:34;14.50;99.90
43227;DHT22;28839;52.404;9.808;2023-05-18T08:22:30;12.70;99.90
43227;DHT22;28839;52.404;9.808;2023-05-18T08:29:23;14.70;99.90
43227;DHT22;28839;52.404;9.808;2023-05-18T08:36:17;16.10;99.90
43227;DHT22;28839;52.404;9.808;2023-05-18T08:43:18;15.70;97.40
43227;DHT22;28839;52.404;9.808;2023-05-18T08:50:16;14.30;99.90
43227;DHT22;28839;52.404;9.808;2023-05-18T08:57:13;15.00;99.50
43227;DHT22;28839;52.404;9.808;2023-05-18T09:04:09;16.20;99.60
43227;DHT22;28839;52.404;9.808;2023-05-18T09:11:04;14.60;98.90
43227;DHT22;28839;52.404;9.808;2023-05-18T09:17:58;15.40;99.90
43227;DHT22;28839;52.404;9.808;2023-05-18T09:24:53;13.50;99.90
43227;DHT22;28839;52.404;9.808;2023-05-18T09:31:47;13.30;99.90
43227;DHT22;28839;52.404;9.808;2023-05-18T09:38:43;14.30;99.90
43227;DHT22;28839;52.404;9.808;2023-05-18T09:45:41;14.10;99.90
43227;DHT22;28839;52.404;9.808;2023-05-18T09:52:40;15.20;99.90
43227;DHT22;28839;52.404;9.808;2023-05-18T09:59:35;16.00;99.60
43227;DHT22;28839;52.404;9.808;2023-05-18T10:06:30;15.60;99.90
43227;DHT22;28839;52.404;9.808;2023-05-18T10:13:24;16.10;99.80
43227;DHT22;28839;52.404;9.808;2023-05-18T10:20:20;15.90;97.40
43227;DHT22;28839;52.404;9.808;2023-05-18T10:27:17;14.80;99.90
43227;DHT22;28839;52.404;9.808;2023-05-18T10:34:14;14.70;99.50
43227;DHT22;28839;52.404;9.808;2023-05-18T10:41:11;14.30;99.90
43227;DHT22;28839;52.404;9.808;2023-05-18T10:48:08;14.30;99.90
43227;DHT22;28839;52.404;9.808;2023-05-18T10:55:04;15.80;99.80
43227;DHT22;28839;52.404;9.808;2023-05-18T11:02:00;15.50;98.90
43227;DHT22;28839;52.404;9.808;2023-05-18T11:08:56;15.00;99.00
43227;DHT22;28839;52.404;9.808;2023-05-18T11:16:04;15.00;99.40
43227;DHT22;28839;52.404;9.808;2023-05-18T11:23:01;15.50;99.10
43227;DHT22;28839;52.404;9.808;2023-05-18T11:29:57;16.00;99.80
43227;DHT22;28839;52.404;9.808;2023-05-18T11:36:54;14.90;99.70
43227;DHT22;28839;52.404;9.808;2023-05-18T11:44:01;14.70;99.90
43227;DHT22;28839;52.404;9.808;2023-05-18T11:50:59;15.40;99.60
43227;DHT22;28839;52.404;9.808;2023-05-18T11:57:53;15.10;98.70
43227;DHT22;28839;52.404;9.808;2023-05-18T12:04:48;15.30;98.10
43227;DHT22;28839;52.404;9.808;2023-05-18T12:11:44;15.60;98.80
43227;DHT22;28839;52.404;9.808;2023-05-18T12:18:38;15.40;97.70
43227;DHT22;28839;52.404;9.808;2023-05-18T12:25:32;15.20;99.90
43227;DHT22;28839;52.404;9.808;2023-05-18T12:32:29;15.40;99.90
43227;DHT22;28839;52.404;9.808;2023-05-18T12:39:24;15.20;98.70
43227;DHT22;28839;52.404;9.808;2023-05-18T12:46:18;15.30;98.90
43227;DHT22;28839;52.404;9.808;2023-05-18T12:53:13;15.00;98.10
43227;DHT22;28839;52.404;9.808;2023-05-18T13:00:11;15.10;98.20
43227;DHT22;28839;52.404;9.808;2023-05-18T13:07:05;15.50;99.00
43227;DHT22;28839;52.404;9.808;2023-05-18T13:14:01;15.40;97.70
43227;DHT22;28839;52.404;9.808;2023-05-18T13:20:56;15.60;97.60
43227;DHT22;28839;52.404;9.808;2023-05-18T13:27:50;15.50;98.10
43227;DHT22;28839;52.404;9.808;2023-05-18T13:34:47;15.20;97.40
43227;DHT22;28839;52.404;9.808;2023-05-18T13:41:41;15.80;99.00
43227;DHT22;28839;52.404;9.808;2023-05-18T13:48:35;15.90;97.50
43227;DHT22;28839;52.404;9.808;2023-05-18T13:55:30;16.10;97.20
43227;DHT22;28839;52.404;9.808;2023-05-18T14:02:24;16.10;96.40
43227;DHT22;28839;52.404;9.808;2023-05-18T14:09:18;15.80;96.50
43227;DHT22;28839;52.404;9.808;2023-05-18T14:16:13;15.50;97.40
43227;DHT22;28839;52.404;9.808;2023-05-18T14:23:07;15.60;97.30
43227;DHT22;28839;52.404;9.808;2023-05-18T14:30:01;15.60;97.20
43227;DHT22;28839;52.404;9.808;2023-05-18T14:36:56;15.50;94.90
43227;DHT22;28839;52.404;9.808;2023-05-18T14:43:50;15.90;96.90
43227;DHT22;28839;52.404;9.808;2023-05-18T14:50:45;15.90;94.30
43227;DHT22;28839;52.404;9.808;2023-05-18T14:57:40;15.60;95.60
43227;DHT22;28839;52.404;9.808;2023-05-18T15:04:34;15.70;96.50
43227;DHT22;28839;52.404;9.808;2023-05-18T15:11:28;15.40;95.80
43227;DHT22;28839;52.404;9.808;2023-05-18T15:18:23;15.60;95.90
43227;DHT22;28839;52.404;9.808;2023-05-18T15:25:17;16.00;93.80
43227;DHT22;28839;52.404;9.808;2023-05-18T15:32:11;16.10;94.90
43227;DHT22;28839;52.404;9.808;2023-05-18T15:39:06;16.10;93.80
43227;DHT22;28839;52.404;9.808;2023-05-18T15:46:01;15.90;95.00
43227;DHT22;28839;52.404;9.808;2023-05-18T15:52:54;15.70;94.80
43227;DHT22;28839;52.404;9.808;2023-05-18T15:59:51;15.50;95.10
43227;DHT22;28839;52.404;9.808;2023-05-18T16:06:45;15.70;96.90
43227;DHT22;28839;52.404;9.808;2023-05-18T16:13:39;16.20;95.30
43227;DHT22;28839;52.404;9.808;2023-05-18T16:20:34;15.90;95.90
43227;DHT22;28839;52.404;9.808;2023-05-18T16:27:28;15.70;96.00
43227;DHT22;28839;52.404;9.808;2023-05-18T16:34:22;15.60;95.00
43227;DHT22;28839;52.404;9.808;2023-05-18T16:41:17;15.60;95.80
43227;DHT22;28839;52.404;9.808;2023-05-18T16:48:11;15.30;96.30
43227;DHT22;28839;52.404;9.808;2023-05-18T16:55:06;15.70;97.10
43227;DHT22;28839;52.404;9.808;2023-05-18T17:02:01;15.60;96.50
43227;DHT22;28839;52.404;9.808;2023-05-18T17:08:55;15.60;97.80
43227;DHT22;28839;52.404;9.808;2023-05-18T17:15:49;15.50;96.50
43227;DHT22;28839;52.404;9.808;2023-05-18T17:22:44;15.60;96.70
43227;DHT22;28839;52.404;9.808;2023-05-18T17:29:38;15.40;96.00
43227;DHT22;28839;52.404;9.808;2023-05-18T17:36:32;15.30;95.50
43227;DHT22;28839;52.404;9.808;2023-05-18T17:43:27;15.30;96.30
43227;DHT22;28839;52.404;9.808;2023-05-18T17:50:21;15.50;96.10
43227;DHT22;28839;52.404;9.808;2023-05-18T17:57:15;15.30;95.60
43227;DHT22;28839;52.404;9.808;2023-05-18T18:04:10;15.30;96.20
43227;DHT22;28839;52.404;9.808;2023-05-18T18:11:04;15.40;95.80
43227;DHT22;28839;52.404;9.808;2023-05-18T18:17:58;15.30;96.50
43227;DHT22;28839;52.404;9.808;2023-05-18T18:24:54;15.00;97.00
43227;DHT22;28839;52.404;9.808;2023-05-18T18:31:49;14.80;97.60
43227;DHT22;28839;52.404;9.808;2023-05-18T18:38:43;14.80;97.60
43227;DHT22;28839;52.404;9.808;2023-05-18T18:45:38;14.30;99.40
43227;DHT22;28839;52.404;9.808;2023-05-18T18:52:32;14.10;99.90
43227;DHT22;28839;52.404;9.808;2023-05-18T18:59:26;14.00;99.90
43227;DHT22;28839;52.404;9.808;2023-05-18T19:06:21;13.80;99.90
43227;DHT22;28839;52.404;9.808;2023-05-18T19:13:15;13.60;99.90
43227;DHT22;28839;52.404;9.808;2023-05-18T19:20:10;13.40;99.90
43227;DHT22;28839;52.404;9.808;2023-05-18T19:27:05;13.20;99.90
43227;DHT22;28839;52.404;9.808;2023-05-18T19:33:59;13.00;99.90
43227;DHT22;28839;52.404;9.808;2023-05-18T19:40:53;12.90;99.90
43227;DHT22;28839;52.404;9.808;2023-05-18T19:47:48;12.80;99.90
43227;DHT22;28839;52.404;9.808;2023-05-18T19:54:42;12.70;99.90
43227;DHT22;28839;52.404;9.808;2023-05-18T20:01:35;12.60;99.90
43227;DHT22;28839;52.404;9.808;2023-05-18T20:08:31;12.30;99.90
43227;DHT22;28839;52.404;9.808;2023-05-18T20:15:25;12.20;99.90
43227;DHT22;28839;52.404;9.808;2023-05-18T20:22:19;12.10;99.90
43227;DHT22;28839;52.404;9.808;2023-05-18T20:29:15;11.80;99.90
43227;DHT22;28839;52.404;9.808;2023-05-18T20:36:09;11.80;99.90
43227;DHT22;28839;52.404;9.808;2023-05-18T20:43:03;11.60;99.90
43227;DHT22;28839;52.404;9.808;2023-05-18T20:50:03;11.40;99.90
43227;DHT22;28839;52.404;9.808;2023-05-18T20:56:57;11.50;99.90
43227;DHT22;28839;52.404;9.808;2023-05-18T21:03:51;11.50;99.90
43227;DHT22;28839;52.404;9.808;2023-05-18T21:10:47;11.30;99.90
43227;DHT22;28839;52.404;9.808;2023-05-18T21:17:40;11.10;99.90
43227;DHT22;28839;52.404;9.808;2023-05-18T21:24:34;10.90;99.90
43227;DHT22;28839;52.404;9.808;2023-05-18T21:31:29;10.70;99.90
43227;DHT22;28839;52.404;9.808;2023-05-18T21:38:23;10.50;99.90
43227;DHT22;28839;52.404;9.808;2023-05-18T21:45:17;10.40;99.90
43227;DHT22;28839;52.404;9.808;2023-05-18T21:52:15;10.10;99.90
43227;DHT22;28839;52.404;9.808;2023-05-18T21:59:09;10.00;99.90
43227;DHT22;28839;52.404;9.808;2023-05-18T22:06:05;10.00;99.90
43227;DHT22;28839;52.404;9.808;2023-05-18T22:13:00;10.20;99.90
43227;DHT22;28839;52.404;9.808;2023-05-18T22:19:54;10.10;99.90
43227;DHT22;28839;52.404;9.808;2023-05-18T22:26:49;10.00;99.90
43227;DHT22;28839;52.404;9.808;2023-05-18T22:33:44;9.90;99.90
43227;DHT22;28839;52.404;9.808;2023-05-18T22:40:38;9.80;99.90
43227;DHT22;28839;52.404;9.808;2023-05-18T22:47:32;9.70;99.90
43227;DHT22;28839;52.404;9.808;2023-05-18T22:54:27;9.80;99.90
43227;DHT22;28839;52.404;9.808;2023-05-18T23:01:21;9.80;99.90
43227;DHT22;28839;52.404;9.808;2023-05-18T23:08:15;9.80;99.90
43227;DHT22;28839;52.404;9.808;2023-05-18T23:15:10;9.70;99.90
43227;DHT22;28839;52.404;9.808;2023-05-18T23:22:04;9.60;99.90
43227;DHT22;28839;52.404;9.808;2023-05-18T23:28:58;9.60;99.90
43227;DHT22;28839;52.404;9.808;2023-05-18T23:35:57;9.50;99.90
43227;DHT22;28839;52.404;9.808;2023-05-18T23:42:54;9.50;99.90
43227;DHT22;28839;52.404;9.808;2023-05-18T23:49:48;9.40;99.90
43227;DHT22;28839;52.404;9.808;2023-05-18T23:56:44;9.30;99.90
